sensor_id;sensor_type;location;lat;lon;timestamp;pressure;altitude;pressure_sealevel;temperature;humidity
47524;BME280;33253;42.144;25.884;2023-05-29T00:02:01;99995.22;;;16.70;100.00
47524;BME280;33253;42.144;25.884;2023-05-29T00:04:26;100065.75;;;16.94;100.00
47524;BME280;33253;42.144;25.884;2023-05-29T00:06:52;100065.75;;;16.94;100.00
47524;BME280;33253;42.144;25.884;2023-05-29T00:09:17;100062.31;;;17.00;100.00
47524;BME280;33253;42.144;25.884;2023-05-29T00:11:43;100058.75;;;16.90;100.00
47524;BME280;33253;42.144;25.884;2023-05-29T00:14:08;100061.34;;;16.86;100.00
47524;BME280;33253;42.144;25.884;2023-05-29T00:16:37;100063.94;;;16.81;100.00
47524;BME280;33253;42.144;25.884;2023-05-29T00:19:03;100069.16;;;16.82;100.00
47524;BME280;33253;42.144;25.884;2023-05-29T00:21:28;100068.22;;;16.70;100.00
47524;BME280;33253;42.144;25.884;2023-05-29T00:23:54;100059.50;;;16.61;100.00
47524;BME280;33253;42.144;25.884;2023-05-29T00:26:19;100061.25;;;16.65;100.00
47524;BME280;33253;42.144;25.884;2023-05-29T00:28:46;100083.91;;;16.82;100.00
47524;BME280;33253;42.144;25.884;2023-05-29T00:31:11;100090.91;;;16.86;100.00
47524;BME280;33253;42.144;25.884;2023-05-29T00:33:37;100097.88;;;16.90;100.00
47524;BME280;33253;42.144;25.884;2023-05-29T00:36:02;100001.19;;;16.45;100.00
47524;BME280;33253;42.144;25.884;2023-05-29T00:38:28;100082.19;;;16.86;100.00
47524;BME280;33253;42.144;25.884;2023-05-29T00:40:53;100096.19;;;16.95;100.00
47524;BME280;33253;42.144;25.884;2023-05-29T00:43:18;100090.06;;;16.89;100.00
47524;BME280;33253;42.144;25.884;2023-05-29T00:45:44;100093.50;;;16.91;100.00
47524;BME280;33253;42.144;25.884;2023-05-29T00:48:09;100091.88;;;16.99;100.00
47524;BME280;33253;42.144;25.884;2023-05-29T00:50:35;100077.06;;;16.96;100.00
47524;BME280;33253;42.144;25.884;2023-05-29T00:53:01;100098.91;;;17.19;100.00
47524;BME280;33253;42.144;25.884;2023-05-29T00:55:28;100095.47;;;17.26;100.00
47524;BME280;33253;42.144;25.884;2023-05-29T00:57:55;100097.19;;;17.33;100.00
47524;BME280;33253;42.144;25.884;2023-05-29T01:00:20;100067.59;;;17.23;100.00
47524;BME280;33253;42.144;25.884;2023-05-29T01:02:46;100089.41;;;17.41;100.00
47524;BME280;33253;42.144;25.884;2023-05-29T01:05:13;100024.91;;;16.98;100.00
47524;BME280;33253;42.144;25.884;2023-05-29T01:07:40;100085.91;;;17.33;100.00
47524;BME280;33253;42.144;25.884;2023-05-29T01:10:07;100086.75;;;17.32;100.00
47524;BME280;33253;42.144;25.884;2023-05-29T01:12:39;100040.59;;;17.06;100.00
47524;BME280;33253;42.144;25.884;2023-05-29T01:20:52;100069.41;;;17.44;100.00
47524;BME280;33253;42.144;25.884;2023-05-29T01:28:49;100055.47;;;17.30;100.00
47524;BME280;33253;42.144;25.884;2023-05-29T01:31:23;100088.50;;;17.34;100.00
47524;BME280;33253;42.144;25.884;2023-05-29T01:33:55;100084.19;;;17.35;100.00
47524;BME280;33253;42.144;25.884;2023-05-29T01:36:21;100071.09;;;17.33;100.00
47524;BME280;33253;42.144;25.884;2023-05-29T01:38:48;100067.66;;;17.40;100.00
47524;BME280;33253;42.144;25.884;2023-05-29T01:41:15;100007.56;;;17.08;100.00
47524;BME280;33253;42.144;25.884;2023-05-29T01:43:43;100042.41;;;17.25;100.00
47524;BME280;33253;42.144;25.884;2023-05-29T01:46:11;100058.94;;;17.35;100.00
47524;BME280;33253;42.144;25.884;2023-05-29T01:48:37;100079.00;;;17.47;100.00
47524;BME280;33253;42.144;25.884;2023-05-29T01:51:03;100000.59;;;16.99;100.00
47524;BME280;33253;42.144;25.884;2023-05-29T01:53:29;100046.69;;;17.08;100.00
47524;BME280;33253;42.144;25.884;2023-05-29T01:55:54;100085.03;;;17.26;100.00
47524;BME280;33253;42.144;25.884;2023-05-29T01:58:21;100017.03;;;16.89;100.00
47524;BME280;33253;42.144;25.884;2023-05-29T02:00:47;100074.50;;;17.06;100.00
47524;BME280;33253;42.144;25.884;2023-05-29T02:03:13;100057.00;;;16.88;100.00
47524;BME280;33253;42.144;25.884;2023-05-29T02:05:38;100049.19;;;16.86;100.00
47524;BME280;33253;42.144;25.884;2023-05-29T02:08:04;100079.72;;;17.12;100.00
47524;BME280;33253;42.144;25.884;2023-05-29T02:10:29;100076.28;;;17.16;100.00
47524;BME280;33253;42.144;25.884;2023-05-29T02:12:57;100075.41;;;17.23;100.00
47524;BME280;33253;42.144;25.884;2023-05-29T02:15:22;100064.09;;;17.17;100.00
47524;BME280;33253;42.144;25.884;2023-05-29T02:17:48;100081.53;;;17.25;100.00
47524;BME280;33253;42.144;25.884;2023-05-29T02:20:14;100088.44;;;17.14;100.00
47524;BME280;33253;42.144;25.884;2023-05-29T02:22:41;100081.47;;;17.04;100.00
47524;BME280;33253;42.144;25.884;2023-05-29T02:25:06;100084.09;;;17.13;100.00
47524;BME280;33253;42.144;25.884;2023-05-29T02:27:32;100088.47;;;17.20;100.00
47524;BME280;33253;42.144;25.884;2023-05-29T02:29:57;100073.63;;;17.07;100.00
47524;BME280;33253;42.144;25.884;2023-05-29T02:32:24;100073.53;;;16.84;100.00
47524;BME280;33253;42.144;25.884;2023-05-29T02:34:51;100042.06;;;16.57;100.00
47524;BME280;33253;42.144;25.884;2023-05-29T02:37:17;100063.91;;;16.75;100.00
47524;BME280;33253;42.144;25.884;2023-05-29T02:39:43;100076.94;;;16.78;100.00
47524;BME280;33253;42.144;25.884;2023-05-29T02:42:08;100089.16;;;16.84;100.00
47524;BME280;33253;42.144;25.884;2023-05-29T02:44:34;100078.72;;;16.88;100.00
47524;BME280;33253;42.144;25.884;2023-05-29T02:46:59;100060.53;;;16.91;100.00
47524;BME280;33253;42.144;25.884;2023-05-29T02:49:25;100088.41;;;17.00;100.00
47524;BME280;33253;42.144;25.884;2023-05-29T02:51:51;100068.31;;;16.88;100.00
47524;BME280;33253;42.144;25.884;2023-05-29T02:54:21;100078.81;;;16.99;100.00
47524;BME280;33253;42.144;25.884;2023-05-29T02:56:47;100099.78;;;17.18;100.00
47524;BME280;33253;42.144;25.884;2023-05-29T02:59:12;100091.94;;;17.18;100.00
47524;BME280;33253;42.144;25.884;2023-05-29T03:01:38;100112.84;;;17.22;100.00
47524;BME280;33253;42.144;25.884;2023-05-29T03:04:03;100034.38;;;16.79;100.00
47524;BME280;33253;42.144;25.884;2023-05-29T03:06:29;100111.06;;;17.17;100.00
47524;BME280;33253;42.144;25.884;2023-05-29T03:08:54;100075.34;;;16.98;100.00
47524;BME280;33253;42.144;25.884;2023-05-29T03:11:19;100057.88;;;16.87;100.00
47524;BME280;33253;42.144;25.884;2023-05-29T03:13:48;100084.78;;;16.79;100.00
47524;BME280;33253;42.144;25.884;2023-05-29T03:16:14;100105.63;;;16.75;100.00
47524;BME280;33253;42.144;25.884;2023-05-29T03:18:40;100069.81;;;16.43;100.00
47524;BME280;33253;42.144;25.884;2023-05-29T03:21:06;100117.75;;;16.71;100.00
47524;BME280;33253;42.144;25.884;2023-05-29T03:23:32;100122.19;;;16.86;100.00
47524;BME280;33253;42.144;25.884;2023-05-29T03:25:57;100131.84;;;16.95;100.00
47524;BME280;33253;42.144;25.884;2023-05-29T03:28:22;100130.09;;;16.97;100.00
47524;BME280;33253;42.144;25.884;2023-05-29T03:30:48;100128.34;;;16.94;100.00
47524;BME280;33253;42.144;25.884;2023-05-29T03:33:15;100115.25;;;16.90;100.00
47524;BME280;33253;42.144;25.884;2023-05-29T03:35:40;100110.88;;;16.86;100.00
47524;BME280;33253;42.144;25.884;2023-05-29T03:38:07;100123.06;;;16.85;100.00
47524;BME280;33253;42.144;25.884;2023-05-29T03:40:32;100128.19;;;16.73;100.00
47524;BME280;33253;42.144;25.884;2023-05-29T03:42:58;100122.03;;;16.63;100.00
47524;BME280;33253;42.144;25.884;2023-05-29T03:45:23;100129.81;;;16.55;100.00
47524;BME280;33253;42.144;25.884;2023-05-29T03:47:48;100086.22;;;16.31;100.00
47524;BME280;33253;42.144;25.884;2023-05-29T03:50:14;100142.13;;;16.76;100.00
47524;BME280;33253;42.144;25.884;2023-05-29T03:52:41;100149.97;;;16.86;100.00
47524;BME280;33253;42.144;25.884;2023-05-29T03:55:09;100139.63;;;16.92;100.00
47524;BME280;33253;42.144;25.884;2023-05-29T03:57:38;100139.66;;;16.98;100.00
47524;BME280;33253;42.144;25.884;2023-05-29T04:00:07;100092.59;;;16.75;100.00
47524;BME280;33253;42.144;25.884;2023-05-29T04:02:33;100135.41;;;17.16;100.00
47524;BME280;33253;42.144;25.884;2023-05-29T04:04:59;100030.72;;;16.43;100.00
47524;BME280;33253;42.144;25.884;2023-05-29T04:07:25;100128.25;;;16.84;100.00
47524;BME280;33253;42.144;25.884;2023-05-29T04:09:50;100127.38;;;16.83;100.00
47524;BME280;33253;42.144;25.884;2023-05-29T04:12:16;100049.78;;;16.37;100.00
47524;BME280;33253;42.144;25.884;2023-05-29T04:14:41;100075.06;;;16.50;100.00
47524;BME280;33253;42.144;25.884;2023-05-29T04:17:07;100113.38;;;16.64;100.00
47524;BME280;33253;42.144;25.884;2023-05-29T04:19:32;100097.66;;;16.52;100.00
47524;BME280;33253;42.144;25.884;2023-05-29T04:21:58;100129.13;;;16.84;100.00
47524;BME280;33253;42.144;25.884;2023-05-29T04:24:23;100125.66;;;16.88;100.00
47524;BME280;33253;42.144;25.884;2023-05-29T04:26:49;100133.47;;;16.84;100.00
47524;BME280;33253;42.144;25.884;2023-05-29T04:29:16;100110.75;;;16.62;100.00
47524;BME280;33253;42.144;25.884;2023-05-29T04:31:42;100129.91;;;16.68;100.00
47524;BME280;33253;42.144;25.884;2023-05-29T04:34:08;100115.97;;;16.67;100.00
47524;BME280;33253;42.144;25.884;2023-05-29T04:36:33;100134.34;;;16.86;100.00
47524;BME280;33253;42.144;25.884;2023-05-29T04:39:04;100144.91;;;17.03;100.00
47524;BME280;33253;42.144;25.884;2023-05-29T04:41:30;100083.91;;;16.79;100.00
47524;BME280;33253;42.144;25.884;2023-05-29T04:43:56;100147.59;;;17.23;100.00
47524;BME280;33253;42.144;25.884;2023-05-29T04:46:22;100136.31;;;17.24;100.00
47524;BME280;33253;42.144;25.884;2023-05-29T04:48:49;100148.53;;;17.36;100.00
47524;BME280;33253;42.144;25.884;2023-05-29T04:51:21;100153.75;;;17.42;100.00
47524;BME280;33253;42.144;25.884;2023-05-29T04:53:47;100159.03;;;17.50;100.00
47524;BME280;33253;42.144;25.884;2023-05-29T04:56:13;100155.59;;;17.60;100.00
47524;BME280;33253;42.144;25.884;2023-05-29T04:58:40;100158.22;;;17.68;100.00
47524;BME280;33253;42.144;25.884;2023-05-29T05:01:07;100148.63;;;17.65;100.00
47524;BME280;33253;42.144;25.884;2023-05-29T05:03:33;100158.19;;;17.60;100.00
47524;BME280;33253;42.144;25.884;2023-05-29T05:06:02;100139.03;;;17.47;100.00
47524;BME280;33253;42.144;25.884;2023-05-29T05:08:29;100154.72;;;17.66;100.00
47524;BME280;33253;42.144;25.884;2023-05-29T05:10:55;100172.13;;;17.74;100.00
47524;BME280;33253;42.144;25.884;2023-05-29T05:13:21;100157.34;;;17.76;100.00
47524;BME280;33253;42.144;25.884;2023-05-29T05:15:46;100122.50;;;17.51;100.00
47524;BME280;33253;42.144;25.884;2023-05-29T05:18:12;100161.69;;;17.62;100.00
47524;BME280;33253;42.144;25.884;2023-05-29T05:20:37;100164.28;;;17.63;100.00
47524;BME280;33253;42.144;25.884;2023-05-29T05:23:03;100170.41;;;17.73;100.00
47524;BME280;33253;42.144;25.884;2023-05-29T05:25:28;100152.13;;;17.70;100.00
47524;BME280;33253;42.144;25.884;2023-05-29T05:27:53;100127.72;;;17.54;100.00
47524;BME280;33253;42.144;25.884;2023-05-29T05:30:20;100165.19;;;17.78;100.00
47524;BME280;33253;42.144;25.884;2023-05-29T05:32:45;100160.84;;;17.78;100.00
47524;BME280;33253;42.144;25.884;2023-05-29T05:35:11;100171.28;;;17.80;100.00
47524;BME280;33253;42.144;25.884;2023-05-29T05:37:37;100163.47;;;17.85;100.00
47524;BME280;33253;42.144;25.884;2023-05-29T05:40:03;100150.44;;;17.85;100.00
47524;BME280;33253;42.144;25.884;2023-05-29T05:42:31;100101.66;;;17.71;100.00
47524;BME280;33253;42.144;25.884;2023-05-29T05:44:57;100161.81;;;18.15;100.00
47524;BME280;33253;42.144;25.884;2023-05-29T05:47:22;100174.88;;;18.32;100.00
47524;BME280;33253;42.144;25.884;2023-05-29T05:49:48;100062.50;;;17.71;100.00
47524;BME280;33253;42.144;25.884;2023-05-29T05:52:15;100156.59;;;18.33;100.00
47524;BME280;33253;42.144;25.884;2023-05-29T05:54:41;100176.63;;;18.51;100.00
47524;BME280;33253;42.144;25.884;2023-05-29T05:57:07;100169.66;;;18.59;100.00
47524;BME280;33253;42.144;25.884;2023-05-29T05:59:32;100171.41;;;18.67;100.00
47524;BME280;33253;42.144;25.884;2023-05-29T06:01:58;100170.50;;;18.82;100.00
47524;BME280;33253;42.144;25.884;2023-05-29T06:04:23;100119.09;;;18.59;100.00
47524;BME280;33253;42.144;25.884;2023-05-29T06:06:49;100113.03;;;18.51;100.00
47524;BME280;33253;42.144;25.884;2023-05-29T06:09:14;100056.44;;;18.17;100.00
47524;BME280;33253;42.144;25.884;2023-05-29T06:11:40;100146.97;;;18.83;100.00
47524;BME280;33253;42.144;25.884;2023-05-29T06:14:05;100170.47;;;19.14;100.00
47524;BME280;33253;42.144;25.884;2023-05-29T06:16:31;100171.28;;;19.27;100.00
47524;BME280;33253;42.144;25.884;2023-05-29T06:18:56;100173.91;;;19.30;100.00
47524;BME280;33253;42.144;25.884;2023-05-29T06:21:22;100180.81;;;19.37;100.00
47524;BME280;33253;42.144;25.884;2023-05-29T06:23:48;100151.16;;;19.42;100.00
47524;BME280;33253;42.144;25.884;2023-05-29T06:26:14;100105.91;;;19.18;100.00
47524;BME280;33253;42.144;25.884;2023-05-29T06:28:41;100151.13;;;19.49;100.00
47524;BME280;33253;42.144;25.884;2023-05-29T06:31:06;100165.00;;;19.62;100.00
47524;BME280;33253;42.144;25.884;2023-05-29T06:33:32;100165.84;;;19.75;100.00
47524;BME280;33253;42.144;25.884;2023-05-29T06:35:57;100103.13;;;19.50;100.00
47524;BME280;33253;42.144;25.884;2023-05-29T06:38:23;100163.09;;;19.97;100.00
47524;BME280;33253;42.144;25.884;2023-05-29T06:40:48;100167.44;;;20.04;100.00
47524;BME280;33253;42.144;25.884;2023-05-29T06:43:14;100140.44;;;19.88;100.00
47524;BME280;33253;42.144;25.884;2023-05-29T06:45:39;100167.44;;;20.01;100.00
47524;BME280;33253;42.144;25.884;2023-05-29T06:48:06;100127.38;;;19.86;100.00
47524;BME280;33253;42.144;25.884;2023-05-29T06:50:31;100162.09;;;20.16;100.00
47524;BME280;33253;42.144;25.884;2023-05-29T06:52:57;100166.38;;;20.27;100.00
47524;BME280;33253;42.144;25.884;2023-05-29T06:55:22;100165.50;;;20.28;100.00
47524;BME280;33253;42.144;25.884;2023-05-29T06:57:48;100077.66;;;19.72;100.00
47524;BME280;33253;42.144;25.884;2023-05-29T07:00:14;100160.31;;;20.22;100.00
47524;BME280;33253;42.144;25.884;2023-05-29T07:02:39;100173.31;;;20.32;100.00
47524;BME280;33253;42.144;25.884;2023-05-29T07:05:05;100177.69;;;20.35;100.00
47524;BME280;33253;42.144;25.884;2023-05-29T07:07:31;100176.81;;;20.34;100.00
47524;BME280;33253;42.144;25.884;2023-05-29T07:09:56;100064.59;;;19.65;100.00
47524;BME280;33253;42.144;25.884;2023-05-29T07:12:22;100183.88;;;20.25;100.00
47524;BME280;33253;42.144;25.884;2023-05-29T07:14:48;100173.47;;;20.14;100.00
47524;BME280;33253;42.144;25.884;2023-05-29T07:17:14;100169.09;;;20.14;100.00
47524;BME280;33253;42.144;25.884;2023-05-29T07:19:40;100173.44;;;20.17;100.00
47524;BME280;33253;42.144;25.884;2023-05-29T07:22:06;100126.47;;;19.89;100.00
47524;BME280;33253;42.144;25.884;2023-05-29T07:24:31;100116.84;;;19.93;100.00
47524;BME280;33253;42.144;25.884;2023-05-29T07:26:57;100188.22;;;20.26;100.00
47524;BME280;33253;42.144;25.884;2023-05-29T07:29:23;100176.84;;;20.28;100.00
47524;BME280;33253;42.144;25.884;2023-05-29T07:31:49;100165.47;;;20.31;100.00
47524;BME280;33253;42.144;25.884;2023-05-29T07:34:15;100164.56;;;20.35;100.00
47524;BME280;33253;42.144;25.884;2023-05-29T07:37:11;100159.34;;;20.32;100.00
47524;BME280;33253;42.144;25.884;2023-05-29T07:39:36;100145.34;;;20.33;100.00
47524;BME280;33253;42.144;25.884;2023-05-29T07:42:02;100162.78;;;20.40;100.00
47524;BME280;33253;42.144;25.884;2023-05-29T07:44:28;100175.78;;;20.54;100.00
47524;BME280;33253;42.144;25.884;2023-05-29T07:46:54;100161.91;;;20.40;100.00
47524;BME280;33253;42.144;25.884;2023-05-29T07:49:19;100186.19;;;20.65;100.00
47524;BME280;33253;42.144;25.884;2023-05-29T07:51:45;100126.97;;;20.36;100.00
47524;BME280;33253;42.144;25.884;2023-05-29T07:54:10;100158.28;;;20.55;100.00
47524;BME280;33253;42.144;25.884;2023-05-29T07:56:36;100177.34;;;20.75;100.00
47524;BME280;33253;42.144;25.884;2023-05-29T07:59:02;100154.59;;;20.76;100.00
47524;BME280;33253;42.144;25.884;2023-05-29T08:01:28;100165.81;;;20.92;100.00
47524;BME280;33253;42.144;25.884;2023-05-29T08:03:54;100174.47;;;20.98;100.00
47524;BME280;33253;42.144;25.884;2023-05-29T08:06:20;100169.25;;;20.97;100.00
47524;BME280;33253;42.144;25.884;2023-05-29T08:08:46;100175.31;;;21.02;100.00
47524;BME280;33253;42.144;25.884;2023-05-29T08:11:11;100164.88;;;20.96;100.00
47524;BME280;33253;42.144;25.884;2023-05-29T08:13:37;100142.28;;;20.84;100.00
47524;BME280;33253;42.144;25.884;2023-05-29T08:16:03;100157.94;;;20.95;100.00
47524;BME280;33253;42.144;25.884;2023-05-29T08:18:30;100159.69;;;20.90;100.00
47524;BME280;33253;42.144;25.884;2023-05-29T08:20:56;100142.25;;;20.87;100.00
47524;BME280;33253;42.144;25.884;2023-05-29T08:23:22;100177.09;;;21.01;100.00
47524;BME280;33253;42.144;25.884;2023-05-29T08:25:47;100159.63;;;20.99;100.00
47524;BME280;33253;42.144;25.884;2023-05-29T08:28:14;100148.09;;;21.12;100.00
47524;BME280;33253;42.144;25.884;2023-05-29T08:30:39;100101.06;;;20.95;100.00
47524;BME280;33253;42.144;25.884;2023-05-29T08:33:05;100152.34;;;21.23;100.00
47524;BME280;33253;42.144;25.884;2023-05-29T08:35:30;100142.03;;;21.07;100.00
47524;BME280;33253;42.144;25.884;2023-05-29T08:37:56;100144.75;;;20.98;100.00
47524;BME280;33253;42.144;25.884;2023-05-29T08:40:21;100117.88;;;20.76;100.00
47524;BME280;33253;42.144;25.884;2023-05-29T08:43:01;100118.78;;;20.73;100.00
47524;BME280;33253;42.144;25.884;2023-05-29T08:45:28;100124.72;;;20.89;100.00
47524;BME280;33253;42.144;25.884;2023-05-29T08:47:54;100156.06;;;21.03;100.00
47524;BME280;33253;42.144;25.884;2023-05-29T08:50:23;100095.19;;;20.70;100.00
47524;BME280;33253;42.144;25.884;2023-05-29T08:52:49;100119.06;;;21.23;100.00
47524;BME280;33253;42.144;25.884;2023-05-29T08:55:15;100117.69;;;21.63;100.00
47524;BME280;33253;42.144;25.884;2023-05-29T08:57:41;100121.03;;;21.76;100.00
47524;BME280;33253;42.144;25.884;2023-05-29T09:00:09;100115.72;;;21.79;100.00
47524;BME280;33253;42.144;25.884;2023-05-29T09:02:41;100120.63;;;22.02;100.00
47524;BME280;33253;42.144;25.884;2023-05-29T09:05:07;100056.19;;;21.78;100.00
47524;BME280;33253;42.144;25.884;2023-05-29T09:07:34;100115.91;;;22.23;100.00
47524;BME280;33253;42.144;25.884;2023-05-29T09:09:59;100072.25;;;22.12;100.00
47524;BME280;33253;42.144;25.884;2023-05-29T09:12:26;100098.88;;;22.47;100.00
47524;BME280;33253;42.144;25.884;2023-05-29T09:14:52;100116.88;;;22.69;100.00
47524;BME280;33253;42.144;25.884;2023-05-29T09:17:17;100062.81;;;22.52;100.00
47524;BME280;33253;42.144;25.884;2023-05-29T09:19:42;100116.91;;;22.67;100.00
47524;BME280;33253;42.144;25.884;2023-05-29T09:22:11;100071.03;;;22.34;100.00
47524;BME280;33253;42.144;25.884;2023-05-29T09:24:46;100104.63;;;22.16;100.00
47524;BME280;33253;42.144;25.884;2023-05-29T09:27:12;100088.97;;;22.10;100.00
47524;BME280;33253;42.144;25.884;2023-05-29T09:29:39;100102.22;;;22.04;100.00
47524;BME280;33253;42.144;25.884;2023-05-29T09:32:09;100076.88;;;21.98;100.00
47524;BME280;33253;42.144;25.884;2023-05-29T09:34:35;100109.69;;;22.28;100.00
47524;BME280;33253;42.144;25.884;2023-05-29T09:37:06;100110.31;;;22.43;100.00
47524;BME280;33253;42.144;25.884;2023-05-29T09:39:44;100105.28;;;22.29;100.00
47524;BME280;33253;42.144;25.884;2023-05-29T09:42:10;100065.84;;;21.77;100.00
47524;BME280;33253;42.144;25.884;2023-05-29T09:44:36;100098.00;;;21.93;100.00
47524;BME280;33253;42.144;25.884;2023-05-29T09:47:02;100117.34;;;21.88;100.00
47524;BME280;33253;42.144;25.884;2023-05-29T09:49:28;100160.47;;;21.73;100.00
47524;BME280;33253;42.144;25.884;2023-05-29T09:51:54;100119.75;;;21.39;100.00
47524;BME280;33253;42.144;25.884;2023-05-29T09:54:19;100140.91;;;21.28;100.00
47524;BME280;33253;42.144;25.884;2023-05-29T09:56:45;100097.72;;;20.82;100.00
47524;BME280;33253;42.144;25.884;2023-05-29T09:59:12;100134.25;;;21.01;100.00
47524;BME280;33253;42.144;25.884;2023-05-29T10:01:42;100056.22;;;20.33;100.00
47524;BME280;33253;42.144;25.884;2023-05-29T10:04:09;100136.34;;;20.62;100.00
47524;BME280;33253;42.144;25.884;2023-05-29T10:06:36;100120.81;;;20.39;100.00
47524;BME280;33253;42.144;25.884;2023-05-29T10:09:05;100120.78;;;20.43;100.00
47524;BME280;33253;42.144;25.884;2023-05-29T10:11:33;100106.09;;;20.24;100.00
47524;BME280;33253;42.144;25.884;2023-05-29T10:14:00;100120.94;;;20.25;100.00
47524;BME280;33253;42.144;25.884;2023-05-29T10:16:28;100144.47;;;20.34;100.00
47524;BME280;33253;42.144;25.884;2023-05-29T10:18:55;100132.31;;;20.25;100.00
47524;BME280;33253;42.144;25.884;2023-05-29T10:21:21;100135.94;;;20.07;100.00
47524;BME280;33253;42.144;25.884;2023-05-29T10:23:49;100106.44;;;19.83;100.00
47524;BME280;33253;42.144;25.884;2023-05-29T10:26:21;100166.41;;;20.22;100.00
47524;BME280;33253;42.144;25.884;2023-05-29T10:40:08;100169.47;;;19.43;100.00
47524;BME280;33253;42.144;25.884;2023-05-29T10:50:43;100179.25;;;18.61;100.00
47524;BME280;33253;42.144;25.884;2023-05-29T10:53:14;100172.25;;;18.56;100.00
47524;BME280;33253;42.144;25.884;2023-05-29T10:55:40;100167.03;;;18.67;100.00
47524;BME280;33253;42.144;25.884;2023-05-29T10:58:12;100174.84;;;18.87;100.00
47524;BME280;33253;42.144;25.884;2023-05-29T13:56:49;100059.44;;;19.52;100.00
47524;BME280;33253;42.144;25.884;2023-05-29T13:59:15;100097.69;;;19.80;100.00
47524;BME280;33253;42.144;25.884;2023-05-29T14:01:41;100126.34;;;20.04;100.00
47524;BME280;33253;42.144;25.884;2023-05-29T14:04:06;100119.38;;;20.07;100.00
47524;BME280;33253;42.144;25.884;2023-05-29T14:06:33;100117.59;;;20.10;100.00
47524;BME280;33253;42.144;25.884;2023-05-29T14:08:59;100107.94;;;20.12;100.00
47524;BME280;33253;42.144;25.884;2023-05-29T14:11:25;100096.53;;;20.19;100.00
47524;BME280;33253;42.144;25.884;2023-05-29T14:13:52;100098.22;;;20.27;100.00
47524;BME280;33253;42.144;25.884;2023-05-29T14:16:17;100097.38;;;20.25;100.00
47524;BME280;33253;42.144;25.884;2023-05-29T14:18:44;100087.69;;;20.33;100.00
47524;BME280;33253;42.144;25.884;2023-05-29T14:21:09;100098.13;;;20.36;100.00
47524;BME280;33253;42.144;25.884;2023-05-29T14:23:36;100095.50;;;20.38;100.00
47524;BME280;33253;42.144;25.884;2023-05-29T14:26:03;100088.59;;;20.27;100.00
47524;BME280;33253;42.144;25.884;2023-05-29T14:28:28;100083.47;;;20.13;100.00
47524;BME280;33253;42.144;25.884;2023-05-29T14:31:14;100081.84;;;20.03;100.00
47524;BME280;33253;42.144;25.884;2023-05-29T14:33:39;100093.16;;;20.03;100.00
47524;BME280;33253;42.144;25.884;2023-05-29T14:36:05;100087.06;;;20.03;100.00
47524;BME280;33253;42.144;25.884;2023-05-29T14:38:30;100086.19;;;20.04;100.00
47524;BME280;33253;42.144;25.884;2023-05-29T14:40:55;100087.94;;;20.02;100.00
47524;BME280;33253;42.144;25.884;2023-05-29T14:43:21;100065.34;;;19.82;100.00
47524;BME280;33253;42.144;25.884;2023-05-29T14:45:47;100095.81;;;20.05;100.00
47524;BME280;33253;42.144;25.884;2023-05-29T14:48:12;100074.69;;;20.17;100.00
47524;BME280;33253;42.144;25.884;2023-05-29T14:50:58;100075.28;;;20.50;100.00
47524;BME280;33253;42.144;25.884;2023-05-29T14:53:23;100087.31;;;20.73;100.00
47524;BME280;33253;42.144;25.884;2023-05-29T14:55:49;100070.63;;;20.79;100.00
47524;BME280;33253;42.144;25.884;2023-05-29T14:58:15;100088.75;;;21.00;100.00
47524;BME280;33253;42.144;25.884;2023-05-29T15:00:40;100018.25;;;20.68;100.00
47524;BME280;33253;42.144;25.884;2023-05-29T15:03:06;100082.44;;;21.15;100.00
47524;BME280;33253;42.144;25.884;2023-05-29T15:05:31;100075.28;;;21.28;100.00
47524;BME280;33253;42.144;25.884;2023-05-29T15:07:56;100088.97;;;21.49;100.00
47524;BME280;33253;42.144;25.884;2023-05-29T15:10:23;100092.38;;;21.59;100.00
47524;BME280;33253;42.144;25.884;2023-05-29T15:12:50;100031.59;;;21.20;100.00
47524;BME280;33253;42.144;25.884;2023-05-29T15:15:24;100090.84;;;21.42;100.00
47524;BME280;33253;42.144;25.884;2023-05-29T15:17:51;100115.34;;;21.41;100.00
47524;BME280;33253;42.144;25.884;2023-05-29T15:20:24;100043.25;;;20.98;100.00
47524;BME280;33253;42.144;25.884;2023-05-29T15:22:50;100110.31;;;21.24;100.00
47524;BME280;33253;42.144;25.884;2023-05-29T15:25:17;100106.13;;;21.09;100.00
47524;BME280;33253;42.144;25.884;2023-05-29T15:27:43;100103.50;;;21.09;100.00
47524;BME280;33253;42.144;25.884;2023-05-29T15:32:35;100105.22;;;21.12;100.00
47524;BME280;33253;42.144;25.884;2023-05-29T15:35:01;100110.25;;;21.29;100.00
47524;BME280;33253;42.144;25.884;2023-05-29T15:37:26;100113.69;;;21.34;100.00
47524;BME280;33253;42.144;25.884;2023-05-29T15:39:55;100058.13;;;21.01;100.00
47524;BME280;33253;42.144;25.884;2023-05-29T15:42:21;100108.72;;;21.14;100.00
47524;BME280;33253;42.144;25.884;2023-05-29T15:44:47;100117.47;;;21.13;100.00
47524;BME280;33253;42.144;25.884;2023-05-29T15:47:12;100102.63;;;21.10;100.00
47524;BME280;33253;42.144;25.884;2023-05-29T15:49:37;100106.09;;;21.11;100.00
47524;BME280;33253;42.144;25.884;2023-05-29T15:52:03;100104.38;;;21.08;100.00
47524;BME280;33253;42.144;25.884;2023-05-29T15:54:28;100114.06;;;21.06;100.00
47524;BME280;33253;42.144;25.884;2023-05-29T15:56:54;100030.56;;;20.63;100.00